Time;durP1;ratioP1;P1;durP2;ratioP2;P2;SDS_P1;SDS_P2;PMS_P1;PMS_P2;Temp;Humidity;BMP_temperature;BMP_pressure;BME280_temperature;BME280_humidity;BME280_pressure;Samples;Min_cycle;Max_cycle;Signal;HPM_P1;HPM_P2
2023/02/08 02:14:18;;;;;;;39.35;33.53;;;;;;;-4.16;93.21;97012.50;4667589;28;20165;-67
2023/02/08 02:16:44;;;;;;;39.00;32.97;;;;;;;-4.20;93.27;97014.28;5051981;28;20045;-60
2023/02/08 02:19:18;;;;;;;41.03;32.50;;;;;;;-4.27;93.54;97011.81;5048873;28;20095;-60
2023/02/08 02:21:49;;;;;;;39.22;31.40;;;;;;;-4.28;94.54;97016.09;5047894;28;20083;-60
2023/02/08 02:24:36;;;;;;;35.50;30.63;;;;;;;-4.30;94.61;97015.25;5040987;28;20040;-60
2023/02/08 02:27:09;;;;;;;30.67;27.45;;;;;;;-4.27;93.93;97022.09;5048433;28;20565;-61
2023/02/08 02:29:53;;;;;;;31.17;27.70;;;;;;;-4.26;94.09;97019.47;5046983;28;20041;-62
2023/02/08 02:32:56;;;;;;;33.20;27.80;;;;;;;-4.24;93.46;97019.47;5043333;28;20033;-61
2023/02/08 02:35:30;;;;;;;29.55;26.13;;;;;;;-4.28;93.74;97018.66;5051895;28;20522;-61
2023/02/08 02:38:19;;;;;;;31.08;27.05;;;;;;;-4.34;94.39;97017.00;5045060;28;20423;-61
2023/02/08 02:44:23;;;;;;;29.80;26.33;;;;;;;-4.41;95.04;97014.53;5041713;28;20128;-73
2023/02/08 02:46:57;;;;;;;31.63;27.65;;;;;;;-4.43;94.78;97016.25;5050132;28;20045;-64
2023/02/08 02:49:31;;;;;;;30.35;25.65;;;;;;;-4.38;94.65;97014.50;5049293;28;20495;-61
2023/02/08 02:52:10;;;;;;;30.85;26.80;;;;;;;-4.41;94.85;97020.53;5043538;28;20750;-61
2023/02/08 02:55:04;;;;;;;31.42;25.90;;;;;;;-4.40;94.78;97024.78;5044024;28;20037;-60
2023/02/08 02:57:32;;;;;;;33.35;26.83;;;;;;;-4.43;94.85;97022.25;5034394;28;20038;-61
2023/02/08 02:59:58;;;;;;;31.73;27.27;;;;;;;-4.46;95.12;97028.28;5040700;28;20056;-60
2023/02/08 03:02:26;;;;;;;38.72;30.27;;;;;;;-4.49;94.77;97036.03;5041732;28;20116;-61
2023/02/08 03:04:56;;;;;;;37.10;31.98;;;;;;;-4.50;95.31;97031.75;5049821;28;20044;-67
2023/02/08 03:07:27;;;;;;;39.28;29.77;;;;;;;-4.54;96.00;97029.22;5028315;28;20525;-67
2023/02/08 03:10:16;;;;;;;30.98;27.17;;;;;;;-4.56;96.02;97020.69;5043691;28;20112;-68
2023/02/08 03:13:04;;;;;;;32.05;28.55;;;;;;;-4.57;95.28;97031.84;5046094;28;20036;-67
2023/02/08 03:15:39;;;;;;;34.10;28.40;;;;;;;-4.61;95.80;97028.47;5061195;28;20056;-68
2023/02/08 03:18:11;;;;;;;31.45;27.08;;;;;;;-4.66;97.07;97035.34;5062989;28;20054;-67
2023/02/08 03:20:39;;;;;;;27.38;23.17;;;;;;;-4.69;97.33;97035.38;5063088;28;20044;-68
2023/02/08 03:23:18;;;;;;;31.25;27.70;;;;;;;-4.72;97.55;97030.28;5068114;28;20036;-72
2023/02/08 03:26:00;;;;;;;28.63;24.45;;;;;;;-4.78;97.76;97028.63;5069860;28;20036;-62
2023/02/08 03:28:39;;;;;;;25.48;22.95;;;;;;;-4.80;98.04;97026.09;5063342;28;20056;-67
2023/02/08 03:31:22;;;;;;;25.13;22.50;;;;;;;-4.80;97.93;97020.06;5060321;28;20657;-67
2023/02/08 03:33:55;;;;;;;27.88;24.95;;;;;;;-4.71;96.75;97017.44;5064570;28;20036;-67
2023/02/08 03:36:44;;;;;;;31.08;27.35;;;;;;;-4.65;96.50;97024.19;5065538;28;20540;-68
2023/02/08 03:39:15;;;;;;;33.50;29.90;;;;;;;-4.69;96.25;97025.97;5057503;28;20106;-67
2023/02/08 03:41:45;;;;;;;26.83;24.00;;;;;;;-4.78;97.04;97026.06;5061973;28;20055;-62
2023/02/08 03:44:31;;;;;;;31.30;27.92;;;;;;;-4.85;97.01;97021.84;5065532;28;20079;-62
2023/02/08 03:47:04;;;;;;;32.65;28.50;;;;;;;-4.83;97.78;97035.53;5059336;28;20028;-61
2023/02/08 03:49:34;;;;;;;31.95;28.42;;;;;;;-4.80;98.14;97030.34;5064002;28;20044;-61
2023/02/08 03:52:03;;;;;;;32.22;27.77;;;;;;;-4.79;97.62;97025.22;5058665;28;20103;-61
2023/02/08 03:54:34;;;;;;;31.30;27.90;;;;;;;-4.86;97.54;97023.59;5063631;28;20824;-61
2023/02/08 03:57:11;;;;;;;29.85;26.40;;;;;;;-4.87;97.80;97016.72;5067819;28;20091;-61
2023/02/08 03:59:39;;;;;;;33.88;29.45;;;;;;;-4.86;97.23;97030.41;5058226;28;20037;-61
2023/02/08 04:02:09;;;;;;;32.92;27.42;;;;;;;-4.81;96.76;97029.53;5062456;28;20104;-67
2023/02/08 04:04:43;;;;;;;30.52;27.23;;;;;;;-4.81;97.23;97029.53;5068321;28;20115;-64
2023/02/08 04:07:09;;;;;;;31.20;27.42;;;;;;;-4.76;96.42;97032.03;5063933;28;20040;-64
2023/02/08 04:09:34;;;;;;;33.13;28.02;;;;;;;-4.81;97.01;97029.53;5061419;28;20431;-64
2023/02/08 04:11:59;;;;;;;30.42;26.52;;;;;;;-4.80;97.45;97031.22;5061310;28;20375;-64
2023/02/08 04:14:25;;;;;;;26.40;23.20;;;;;;;-4.71;96.56;97040.56;5068051;28;20048;-63
2023/02/08 04:16:51;;;;;;;28.30;24.67;;;;;;;-4.70;97.51;97036.25;5060780;28;20044;-63
2023/02/08 04:19:16;;;;;;;27.65;24.48;;;;;;;-4.73;97.74;97034.59;5069171;28;20032;-64
2023/02/08 04:21:41;;;;;;;27.77;24.15;;;;;;;-4.76;97.25;97040.59;5069765;28;20032;-62
2023/02/08 04:24:07;;;;;;;25.92;23.02;;;;;;;-4.80;96.76;97038.06;5064959;28;20041;-62
2023/02/08 04:26:32;;;;;;;27.83;24.23;;;;;;;-4.80;97.05;97041.50;5064455;28;20032;-62
2023/02/08 04:28:58;;;;;;;32.97;27.60;;;;;;;-4.77;98.21;97050.88;5066608;28;20051;-62
2023/02/08 04:31:23;;;;;;;31.20;26.40;;;;;;;-4.77;97.47;97043.16;5071117;28;20078;-62
2023/02/08 04:33:48;;;;;;;28.05;25.00;;;;;;;-4.84;97.39;97051.81;5068089;28;20529;-62
2023/02/08 04:36:14;;;;;;;29.77;26.58;;;;;;;-4.90;97.50;97047.56;5071020;28;20024;-62
2023/02/08 04:38:39;;;;;;;29.55;24.15;;;;;;;-4.93;97.89;97052.75;5061812;28;20040;-62
2023/02/08 04:41:04;;;;;;;28.00;24.98;;;;;;;-4.93;98.02;97052.75;5069961;28;20559;-66
2023/02/08 04:43:30;;;;;;;28.70;25.58;;;;;;;-4.93;97.22;97047.59;5068246;28;20045;-62
2023/02/08 04:45:55;;;;;;;29.50;25.60;;;;;;;-4.97;97.59;97040.78;5070957;28;20041;-62
2023/02/08 04:48:20;;;;;;;27.15;22.83;;;;;;;-4.96;98.26;97052.78;5059796;28;20566;-62
2023/02/08 04:50:46;;;;;;;26.70;23.88;;;;;;;-5.00;98.13;97051.94;5065507;28;20047;-63
2023/02/08 04:53:11;;;;;;;25.08;22.48;;;;;;;-5.05;98.34;97046.00;5068771;28;20074;-62
2023/02/08 04:55:37;;;;;;;23.35;20.88;;;;;;;-5.07;98.16;97045.16;5068879;28;20053;-62
2023/02/08 04:58:02;;;;;;;24.27;21.92;;;;;;;-5.09;98.10;97052.03;5072090;28;20071;-62
2023/02/08 05:00:28;;;;;;;21.98;19.80;;;;;;;-5.08;97.71;97046.03;5063022;28;20031;-68
2023/02/08 05:02:55;;;;;;;23.20;20.88;;;;;;;-5.06;97.44;97049.44;5068771;28;20032;-61
2023/02/08 05:05:21;;;;;;;22.42;20.23;;;;;;;-5.08;97.29;97043.47;5061792;28;20040;-61
2023/02/08 05:07:46;;;;;;;23.65;21.15;;;;;;;-5.10;97.87;97055.47;5065842;28;20036;-61
2023/02/08 05:10:12;;;;;;;23.10;19.95;;;;;;;-5.12;97.20;97041.78;5064308;28;20510;-61
2023/02/08 05:12:37;;;;;;;24.67;20.25;;;;;;;-5.09;96.45;97042.59;5064478;28;20047;-61
2023/02/08 05:15:03;;;;;;;21.70;19.48;;;;;;;-5.08;96.46;97041.75;5065094;28;20056;-61
2023/02/08 05:17:28;;;;;;;21.90;19.50;;;;;;;-5.14;96.81;97034.09;5057391;28;20502;-61
2023/02/08 05:19:53;;;;;;;20.23;18.23;;;;;;;-5.20;97.54;97029.84;5068693;28;20035;-63
2023/02/08 05:22:19;;;;;;;20.42;18.42;;;;;;;-5.25;97.46;97026.47;5070282;28;20037;-63
2023/02/08 05:24:44;;;;;;;20.90;18.75;;;;;;;-5.26;97.21;97035.03;5067586;28;20414;-62
2023/02/08 05:27:09;;;;;;;22.30;18.67;;;;;;;-5.26;96.87;97034.19;5060372;28;20040;-62
2023/02/08 05:29:35;;;;;;;21.77;19.33;;;;;;;-5.26;97.40;97037.59;5064935;28;20115;-62
2023/02/08 05:32:00;;;;;;;22.27;19.75;;;;;;;-5.29;96.80;97029.94;5068317;28;20035;-62
2023/02/08 05:34:25;;;;;;;20.92;18.52;;;;;;;-5.30;97.22;97037.66;5065868;28;20028;-62
2023/02/08 05:36:51;;;;;;;23.58;18.95;;;;;;;-5.28;97.00;97035.94;5065869;28;20036;-62
2023/02/08 05:39:16;;;;;;;21.83;19.52;;;;;;;-5.29;96.78;97035.06;5066962;28;20196;-61
2023/02/08 05:41:42;;;;;;;22.95;19.55;;;;;;;-5.31;97.34;97041.94;5067349;28;20094;-74
2023/02/08 05:44:07;;;;;;;22.65;19.17;;;;;;;-5.28;97.50;97041.91;5066801;28;20042;-74
2023/02/08 05:46:32;;;;;;;21.90;19.08;;;;;;;-5.33;97.08;97046.22;5067970;28;20033;-73
2023/02/08 05:48:58;;;;;;;20.65;18.55;;;;;;;-5.35;97.49;97037.69;5067568;28;20036;-72
2023/02/08 05:51:23;;;;;;;20.42;18.38;;;;;;;-5.41;97.34;97030.03;5057731;28;20035;-73
2023/02/08 05:53:48;;;;;;;20.25;18.08;;;;;;;-5.42;97.51;97028.31;5067931;28;20449;-72
2023/02/08 05:56:14;;;;;;;21.65;18.90;;;;;;;-5.41;97.03;97032.59;5066470;28;20052;-72
2023/02/08 05:58:39;;;;;;;25.98;22.40;;;;;;;-5.35;96.53;97030.00;5066399;28;20930;-61
2023/02/08 06:01:09;;;;;;;24.98;22.30;;;;;;;-5.31;96.55;97031.66;5070085;28;20028;-61
2023/02/08 06:03:35;;;;;;;29.20;23.73;;;;;;;-5.36;97.01;97028.28;5063251;28;20116;-62
2023/02/08 06:06:00;;;;;;;30.40;22.40;;;;;;;-5.40;97.24;97026.59;5061341;28;20601;-62
2023/02/08 06:08:26;;;;;;;29.45;23.88;;;;;;;-5.39;97.92;97025.75;5066194;28;20107;-62
2023/02/08 06:10:51;;;;;;;32.03;23.55;;;;;;;-5.36;97.51;97031.69;5068306;28;20429;-63
2023/02/08 06:13:17;;;;;;;28.25;23.10;;;;;;;-5.39;97.56;97033.44;5070542;28;20047;-62
2023/02/08 06:15:42;;;;;;;30.48;24.92;;;;;;;-5.39;98.15;97036.84;5067306;28;20490;-67
2023/02/08 06:18:08;;;;;;;40.45;34.60;;;;;;;-5.40;97.62;97042.84;5069077;28;20498;-70
2023/02/08 06:20:33;;;;;;;38.42;31.52;;;;;;;-5.41;97.37;97046.28;5068270;28;20037;-62
2023/02/08 06:22:59;;;;;;;34.22;28.60;;;;;;;-5.42;98.29;97043.72;5047091;28;20506;-62
2023/02/08 06:25:24;;;;;;;36.40;29.13;;;;;;;-5.48;98.52;97049.75;5063204;28;20028;-63
2023/02/08 06:27:49;;;;;;;39.35;29.48;;;;;;;-5.46;98.34;97048.88;5073818;28;20031;-63
2023/02/08 06:30:15;;;;;;;45.83;36.53;;;;;;;-5.46;98.47;97055.72;5061097;28;20063;-62
2023/02/08 06:32:40;;;;;;;49.97;37.10;;;;;;;-5.47;98.74;97046.34;5076528;28;20063;-62
2023/02/08 06:35:06;;;;;;;45.88;37.22;;;;;;;-5.48;97.98;97054.91;5070211;28;20016;-73
2023/02/08 06:37:31;;;;;;;40.53;33.00;;;;;;;-5.54;98.44;97052.34;5069807;28;20573;-61
2023/02/08 06:39:57;;;;;;;37.45;31.17;;;;;;;-5.56;98.84;97057.50;5073086;28;20509;-61
2023/02/08 06:42:25;;;;;;;42.17;31.50;;;;;;;-5.53;99.02;97046.34;5066459;28;20526;-60
2023/02/08 06:44:52;;;;;;;44.60;32.90;;;;;;;-5.50;98.97;97060.03;5069087;28;20086;-60
2023/02/08 06:47:17;;;;;;;38.88;30.58;;;;;;;-5.52;98.64;97054.06;5066073;28;20024;-60
2023/02/08 06:49:42;;;;;;;35.88;31.75;;;;;;;-5.52;98.96;97069.44;5074141;28;20044;-60
2023/02/08 06:52:08;;;;;;;38.97;33.30;;;;;;;-5.53;99.18;97069.44;5060033;28;20036;-60
2023/02/08 06:54:33;;;;;;;47.60;33.95;;;;;;;-5.51;99.49;97060.88;5069468;28;20411;-62
2023/02/08 06:56:58;;;;;;;44.00;35.53;;;;;;;-5.53;98.74;97065.19;5069065;28;20021;-62
2023/02/08 06:59:24;;;;;;;38.22;31.08;;;;;;;-5.59;99.35;97065.22;5062916;28;20152;-73
2023/02/08 07:01:50;;;;;;;52.92;38.60;;;;;;;-5.60;98.93;97076.34;5072212;28;20036;-72
2023/02/08 07:04:15;;;;;;;58.00;41.25;;;;;;;-5.55;99.23;97077.19;5061172;28;20076;-72
2023/02/08 07:06:41;;;;;;;63.65;40.35;;;;;;;-5.59;100.00;97078.06;5066587;28;20029;-73
2023/02/08 07:09:06;;;;;;;67.03;45.55;;;;;;;-5.63;100.00;97082.34;5064162;28;20036;-73
2023/02/08 07:11:32;;;;;;;59.15;40.65;;;;;;;-5.58;99.70;97081.47;5068400;28;20040;-73
2023/02/08 07:13:57;;;;;;;49.58;34.60;;;;;;;-5.57;99.38;97080.59;5064546;28;20035;-65
2023/02/08 07:16:23;;;;;;;47.55;35.70;;;;;;;-5.57;99.87;97080.59;5053401;28;20040;-65
2023/02/08 07:18:48;;;;;;;42.40;31.42;;;;;;;-5.55;99.65;97084.00;5067532;28;20048;-60
2023/02/08 07:21:14;;;;;;;39.50;28.88;;;;;;;-5.52;99.30;97084.03;5067642;28;20029;-60
2023/02/08 07:23:39;;;;;;;29.45;25.33;;;;;;;-5.51;99.57;97086.56;5064420;28;20509;-60
2023/02/08 07:26:07;;;;;;;42.10;32.63;;;;;;;-5.46;100.00;97084.81;5065200;28;20161;-60
2023/02/08 07:28:33;;;;;;;48.00;36.85;;;;;;;-5.42;100.00;97084.78;5064105;28;20502;-61
2023/02/08 07:30:59;;;;;;;44.42;34.95;;;;;;;-5.36;99.31;97077.91;5073333;28;20035;-60
2023/02/08 07:33:25;;;;;;;44.22;37.03;;;;;;;-5.31;99.58;97085.56;5059315;28;20033;-71
2023/02/08 07:35:50;;;;;;;42.70;35.47;;;;;;;-5.29;98.38;97086.41;5060529;28;20559;-61
2023/02/08 07:38:17;;;;;;;44.67;36.80;;;;;;;-5.27;98.27;97089.81;5058850;28;20028;-72
2023/02/08 07:40:42;;;;;;;49.97;37.45;;;;;;;-5.21;98.17;97089.78;5065348;28;20505;-72
2023/02/08 07:43:08;;;;;;;43.35;37.03;;;;;;;-5.21;98.93;97092.34;5063508;28;20032;-71
2023/02/08 07:45:36;;;;;;;44.20;35.45;;;;;;;-5.25;99.25;97095.78;5067479;28;20487;-73
2023/02/08 07:48:01;;;;;;;45.47;37.10;;;;;;;-5.25;99.65;97092.41;5066489;28;20024;-74
2023/02/08 07:50:27;;;;;;;46.70;35.30;;;;;;;-5.25;99.70;97093.22;5060864;28;20091;-70
2023/02/08 07:52:52;;;;;;;48.95;37.33;;;;;;;-5.20;99.16;97088.91;5057636;28;20471;-66
2023/02/08 07:55:19;;;;;;;42.78;36.13;;;;;;;-5.13;98.40;97094.03;5060219;28;21789;-73
2023/02/08 07:57:46;;;;;;;40.53;31.95;;;;;;;-5.07;97.66;97088.81;5063995;28;20029;-63
2023/02/08 08:00:13;;;;;;;36.15;31.92;;;;;;;-5.02;97.52;97089.63;5058397;28;20028;-62
2023/02/08 08:02:39;;;;;;;39.08;32.30;;;;;;;-4.98;96.88;97104.16;5066163;28;20502;-62
2023/02/08 08:05:05;;;;;;;35.90;31.90;;;;;;;-4.95;97.91;97103.28;5052592;28;20109;-62
2023/02/08 08:07:30;;;;;;;38.40;32.95;;;;;;;-4.93;97.95;97102.44;5060617;28;20099;-62
2023/02/08 08:09:56;;;;;;;42.42;34.85;;;;;;;-4.94;98.15;97108.44;5072021;28;20031;-62
2023/02/08 08:12:23;;;;;;;37.25;33.17;;;;;;;-4.92;98.75;97104.13;5059427;28;20032;-64
2023/02/08 08:14:49;;;;;;;41.20;33.90;;;;;;;-4.91;98.74;97108.41;5053135;28;20048;-68
2023/02/08 08:17:14;;;;;;;46.67;36.38;;;;;;;-4.90;98.01;97109.22;5054182;28;20075;-68
2023/02/08 08:19:39;;;;;;;46.80;36.22;;;;;;;-4.86;97.52;97116.06;5054318;28;20095;-72
2023/02/08 08:22:05;;;;;;;51.35;40.85;;;;;;;-4.85;97.11;97122.06;5053163;28;20037;-71
2023/02/08 08:24:34;;;;;;;46.08;36.67;;;;;;;-4.83;97.70;97117.75;5058507;28;20185;-69
2023/02/08 08:27:03;;;;;;;41.80;34.05;;;;;;;-4.80;97.42;97115.16;5064640;28;20047;-67
2023/02/08 08:29:31;;;;;;;44.05;34.75;;;;;;;-4.76;97.71;97116.81;5063047;28;20036;-68
2023/02/08 08:31:56;;;;;;;46.67;35.72;;;;;;;-4.69;97.67;97118.50;5069404;28;20457;-61
2023/02/08 08:34:28;;;;;;;47.92;37.10;;;;;;;-4.64;97.46;97119.31;5070368;28;20039;-60
2023/02/08 08:36:57;;;;;;;43.15;36.17;;;;;;;-4.58;97.43;97125.25;5070823;28;20450;-65
2023/02/08 08:39:23;;;;;;;46.22;36.85;;;;;;;-4.56;98.15;97123.50;5063332;28;20044;-63
2023/02/08 08:41:48;;;;;;;46.90;35.65;;;;;;;-4.52;98.12;97125.22;5068154;28;20044;-65
2023/02/08 08:44:15;;;;;;;42.35;33.88;;;;;;;-4.45;96.73;97119.13;5052897;28;20391;-64
2023/02/08 08:46:40;;;;;;;42.38;33.88;;;;;;;-4.38;96.30;97125.06;5060699;28;20088;-64
2023/02/08 08:49:06;;;;;;;43.97;36.75;;;;;;;-4.31;95.90;97126.72;5055431;28;20045;-66
2023/02/08 08:51:34;;;;;;;40.20;33.92;;;;;;;-4.00;96.76;97125.53;5059610;28;20037;-64
2023/02/08 08:54:00;;;;;;;34.00;29.33;;;;;;;-3.39;95.61;97123.91;5069265;28;20029;-67
2023/02/08 08:56:26;;;;;;;28.73;24.25;;;;;;;-2.81;94.54;97120.47;5063721;28;20122;-65
2023/02/08 08:58:51;;;;;;;35.72;28.52;;;;;;;-2.42;92.76;97125.84;5065929;28;20044;-67
2023/02/08 09:01:16;;;;;;;34.90;24.77;;;;;;;-1.92;89.21;97125.78;5072285;28;20039;-68
2023/02/08 09:03:42;;;;;;;21.85;19.55;;;;;;;-1.52;87.48;97129.28;5064361;28;20552;-73
2023/02/08 09:06:07;;;;;;;27.90;23.10;;;;;;;-1.31;85.51;97122.81;5048442;28;20040;-66
2023/02/08 09:08:32;;;;;;;26.95;22.35;;;;;;;-1.06;83.88;97121.41;5070875;28;20090;-69
2023/02/08 09:11:04;;;;;;;70.95;56.22;;;;;;;-0.92;82.80;97129.72;5069356;28;20052;-68
2023/02/08 09:13:29;;;;;;;56.53;45.03;;;;;;;-0.69;80.70;97136.06;5063666;28;20110;-67
2023/02/08 09:15:55;;;;;;;35.97;24.92;;;;;;;-0.47;78.68;97131.19;5071885;28;20091;-69
2023/02/08 09:18:20;;;;;;;20.63;18.38;;;;;;;-0.32;76.55;97124.81;5060238;28;20024;-67
2023/02/08 09:20:45;;;;;;;18.38;16.48;;;;;;;-0.09;75.13;97131.13;5066966;28;20033;-67
2023/02/08 09:23:11;;;;;;;23.50;20.98;;;;;;;0.09;73.95;97134.09;5074957;28;20029;-70
2023/02/08 09:25:37;;;;;;;26.65;20.88;;;;;;;0.25;73.70;97134.53;5066345;28;20083;-72
2023/02/08 09:28:03;;;;;;;29.23;23.83;;;;;;;0.47;71.99;97131.34;5071809;28;20037;-68
2023/02/08 09:30:28;;;;;;;28.05;25.05;;;;;;;0.53;73.20;97141.50;5060623;28;20457;-62
2023/02/08 09:32:53;;;;;;;22.67;20.45;;;;;;;0.63;73.39;97134.31;5068861;28;20115;-66
2023/02/08 09:35:19;;;;;;;25.08;21.13;;;;;;;0.80;71.95;97136.41;5061944;28;20025;-67
2023/02/08 09:37:44;;;;;;;26.85;23.95;;;;;;;1.09;71.68;97143.28;5070269;28;20032;-64
2023/02/08 09:40:21;;;;;;;35.72;27.98;;;;;;;1.38;70.85;97138.91;5069685;28;20059;-67
2023/02/08 09:42:56;;;;;;;21.55;19.33;;;;;;;1.45;68.33;97136.97;5064142;28;20044;-67
2023/02/08 09:45:44;;;;;;;23.00;20.52;;;;;;;1.64;66.46;97138.97;5071037;28;20024;-66
2023/02/08 09:48:25;;;;;;;45.40;37.17;;;;;;;1.81;68.43;97136.66;5061737;28;20025;-67
2023/02/08 09:50:59;;;;;;;25.67;18.60;;;;;;;1.98;63.63;97143.88;5067703;28;20039;-61
2023/02/08 09:53:39;;;;;;;20.02;17.67;;;;;;;2.15;61.78;97145.03;5063006;28;20410;-67
2023/02/08 09:56:10;;;;;;;20.50;18.48;;;;;;;2.45;63.89;97144.00;5064341;28;20123;-69
2023/02/08 09:58:52;;;;;;;22.10;19.65;;;;;;;2.35;61.50;97143.47;5070236;28;20043;-67
2023/02/08 10:01:23;;;;;;;20.38;18.30;;;;;;;2.44;62.22;97145.72;5071879;28;20129;-66
2023/02/08 10:03:52;;;;;;;20.30;17.55;;;;;;;2.66;62.05;97155.34;5064574;28;20047;-67
2023/02/08 10:06:19;;;;;;;19.98;17.95;;;;;;;2.93;61.20;97147.41;5063023;28;20079;-67
2023/02/08 10:08:49;;;;;;;19.83;17.67;;;;;;;3.03;59.92;97147.91;5060702;28;20080;-64
2023/02/08 10:11:51;;;;;;;17.73;16.02;;;;;;;3.10;60.69;97145.00;5066215;28;20115;-62
2023/02/08 10:15:04;;;;;;;22.48;19.92;;;;;;;2.94;58.74;97154.28;5062819;28;20043;-75
2023/02/08 10:17:48;;;;;;;19.88;18.00;;;;;;;3.01;59.19;97155.78;4986334;28;20061;-75
2023/02/08 10:20:38;;;;;;;21.73;19.58;;;;;;;3.04;58.48;97155.66;4985064;28;20046;-76
2023/02/08 10:23:06;;;;;;;23.77;21.30;;;;;;;2.94;60.14;97154.28;5047522;28;20569;-75
2023/02/08 10:25:43;;;;;;;23.92;21.50;;;;;;;2.99;57.38;97157.59;5064953;28;20033;-74
2023/02/08 10:28:33;;;;;;;21.20;19.20;;;;;;;3.06;57.62;97148.63;5059911;28;20079;-69
2023/02/08 10:31:08;;;;;;;23.13;20.90;;;;;;;2.82;56.52;97150.41;5065540;28;20032;-67
2023/02/08 10:33:37;;;;;;;;;;;;;;;3.12;58.97;97144.94;5059714;28;20050;-67
2023/02/08 10:36:13;;;;;;;22.65;20.13;;;;;;;3.50;57.84;97146.94;5063320;28;20491;-66
2023/02/08 10:38:39;;;;;;;24.13;20.75;;;;;;;3.51;58.10;97144.25;5061586;28;20075;-66
2023/02/08 10:41:07;;;;;;;24.45;21.90;;;;;;;3.56;58.01;97141.47;5058166;28;20372;-66
2023/02/08 10:43:34;;;;;;;25.90;23.10;;;;;;;3.49;56.55;97137.41;5043906;28;20087;-67
2023/02/08 10:46:21;;;;;;;24.45;20.73;;;;;;;3.51;55.31;97146.84;5061819;28;20032;-67
2023/02/08 10:48:55;;;;;;;21.50;19.33;;;;;;;3.90;56.11;97140.06;5061523;28;20040;-65
2023/02/08 10:51:20;;;;;;;21.35;19.15;;;;;;;4.22;54.42;97134.38;5057425;28;20493;-64
2023/02/08 10:53:46;;;;;;;20.70;18.65;;;;;;;4.01;54.62;97132.63;5060335;28;20060;-63
2023/02/08 10:56:46;;;;;;;20.80;18.63;;;;;;;4.04;53.76;97136.00;5062921;28;20103;-63
2023/02/08 10:59:21;;;;;;;25.48;22.83;;;;;;;4.20;54.82;97120.53;5060178;28;20082;-64
2023/02/08 11:01:48;;;;;;;21.43;18.03;;;;;;;4.48;53.33;97124.56;5063999;28;20402;-64
2023/02/08 11:04:15;;;;;;;20.40;18.23;;;;;;;4.55;53.43;97113.78;5063483;28;20048;-64
2023/02/08 11:06:42;;;;;;;21.25;18.67;;;;;;;4.61;52.09;97109.19;5060987;28;20604;-64
2023/02/08 11:09:24;;;;;;;20.45;18.25;;;;;;;4.62;52.32;97116.09;5061075;28;20035;-62
2023/02/08 11:11:51;;;;;;;19.10;16.65;;;;;;;4.98;52.85;97107.50;5064667;28;20044;-72
2023/02/08 11:14:23;;;;;;;19.45;17.38;;;;;;;5.06;51.84;97107.97;5075722;28;20032;-76
2023/02/08 11:16:55;;;;;;;19.73;17.77;;;;;;;5.10;52.32;97091.22;5068260;28;20048;-72
2023/02/08 11:19:41;;;;;;;19.02;17.15;;;;;;;4.86;50.16;97086.25;5073854;28;20029;-72
2023/02/08 11:22:14;;;;;;;19.95;17.55;;;;;;;5.07;50.17;97090.53;5061775;28;20041;-76
2023/02/08 11:24:42;;;;;;;20.38;18.25;;;;;;;5.22;49.70;97084.56;5062549;28;20540;-70
2023/02/08 11:27:28;;;;;;;21.75;19.55;;;;;;;5.32;49.42;97078.91;5070883;28;20036;-70
2023/02/08 11:30:16;;;;;;;21.65;19.50;;;;;;;5.68;50.04;97075.38;5066904;28;20091;-71
2023/02/08 11:32:44;;;;;;;20.50;18.52;;;;;;;5.71;48.38;97083.91;5068862;28;20090;-74
2023/02/08 11:35:19;;;;;;;20.75;18.67;;;;;;;5.70;47.97;97079.63;5062053;28;20067;-75
2023/02/08 11:37:50;;;;;;;18.77;16.83;;;;;;;5.82;48.33;97078.16;5064331;28;20028;-78
2023/02/08 11:40:26;;;;;;;19.05;16.08;;;;;;;5.85;49.16;97077.13;5068491;28;20025;-73
2023/02/08 11:42:52;;;;;;;20.70;18.25;;;;;;;6.00;48.10;97073.72;5063230;28;20044;-73
2023/02/08 11:45:21;;;;;;;20.85;18.75;;;;;;;6.09;48.75;97063.78;5061342;28;20032;-66
2023/02/08 11:47:47;;;;;;;19.90;17.80;;;;;;;6.28;48.40;97061.03;5065904;28;20090;-63
2023/02/08 11:50:29;;;;;;;22.52;19.77;;;;;;;6.26;47.49;97062.88;5045220;28;20036;-63
2023/02/08 11:52:58;;;;;;;26.17;18.52;;;;;;;6.33;47.77;97060.78;5063581;28;20061;-64
2023/02/08 11:55:27;;;;;;;20.08;18.15;;;;;;;6.34;47.88;97059.84;5064745;28;20032;-64
2023/02/08 11:57:57;;;;;;;21.95;18.60;;;;;;;6.47;47.79;97052.19;5074334;28;20116;-64
2023/02/08 12:00:25;;;;;;;20.15;18.25;;;;;;;6.84;46.33;97047.53;5061381;28;20071;-63
2023/02/08 12:02:58;;;;;;;21.23;19.13;;;;;;;7.13;46.71;97045.91;5071956;28;20040;-61
2023/02/08 12:05:37;;;;;;;21.85;19.67;;;;;;;7.82;44.58;97041.97;5055601;28;20410;-73
2023/02/08 12:08:08;;;;;;;21.67;19.48;;;;;;;7.71;43.93;97038.22;5052947;28;20607;-63
2023/02/08 12:10:51;;;;;;;21.27;19.27;;;;;;;7.62;44.47;97045.78;5056487;28;20112;-62
2023/02/08 12:13:19;;;;;;;22.90;20.27;;;;;;;8.10;45.00;97025.41;5051913;28;20025;-62
2023/02/08 12:15:51;;;;;;;21.55;19.25;;;;;;;8.18;44.68;97024.94;5057179;28;20060;-63
2023/02/08 12:18:34;;;;;;;23.38;20.95;;;;;;;8.05;45.21;97017.00;5062263;28;20107;-63
2023/02/08 12:21:37;;;;;;;24.30;21.92;;;;;;;7.64;43.10;97015.06;5057317;28;20032;-64
2023/02/08 12:24:13;;;;;;;24.98;22.48;;;;;;;7.27;44.44;97011.06;5065331;28;20461;-70
2023/02/08 12:26:54;;;;;;;24.75;22.25;;;;;;;7.89;45.32;97007.41;5065903;28;20045;-64
2023/02/08 12:29:31;;;;;;;24.60;22.20;;;;;;;7.96;44.28;96997.41;5067494;28;20067;-75
2023/02/08 12:32:35;;;;;;;24.33;21.60;;;;;;;7.40;45.72;96995.47;5065702;28;20032;-76
2023/02/08 12:35:38;;;;;;;22.75;20.45;;;;;;;7.59;42.92;96997.00;4962439;28;20042;-75
2023/02/08 12:41:39;;;;;;;24.30;21.77;;;;;;;7.92;45.51;96984.56;5068137;28;20056;-77
2023/02/08 12:44:14;;;;;;;22.58;20.23;;;;;;;7.93;44.55;96975.75;5074321;28;20032;-71
2023/02/08 12:46:57;;;;;;;23.33;20.83;;;;;;;8.01;44.20;96976.97;5066300;28;20151;-64
2023/02/08 12:49:51;;;;;;;22.15;19.80;;;;;;;7.81;43.46;96966.88;5070294;28;20260;-64
2023/02/08 12:52:30;;;;;;;21.45;19.35;;;;;;;7.54;44.51;96962.34;5067953;28;20170;-64
2023/02/08 12:55:34;;;;;;;22.38;20.17;;;;;;;7.52;44.77;96961.59;5073281;28;20028;-64
2023/02/08 12:58:25;;;;;;;22.85;20.67;;;;;;;7.56;44.64;96960.50;5059529;28;20111;-65
2023/02/08 13:00:52;;;;;;;30.27;23.65;;;;;;;7.63;44.50;96953.09;5069439;28;20033;-64
2023/02/08 13:04:00;;;;;;;25.20;22.42;;;;;;;7.42;44.27;96951.69;5072170;28;20043;-64
2023/02/08 13:06:35;;;;;;;23.60;21.23;;;;;;;7.56;44.76;96950.88;5051453;28;20040;-64
2023/02/08 13:09:06;;;;;;;62.05;35.25;;;;;;;7.47;43.96;96940.09;5064903;28;20089;-64
2023/02/08 13:11:39;;;;;;;70.32;38.00;;;;;;;7.30;43.84;96944.53;5068566;28;20029;-64
2023/02/08 13:14:12;;;;;;;25.35;22.63;;;;;;;7.32;44.42;96934.81;5061244;28;20044;-64
2023/02/08 13:16:44;;;;;;;22.85;20.48;;;;;;;7.47;45.35;96927.81;5067713;28;20111;-64
2023/02/08 13:19:28;;;;;;;22.92;20.45;;;;;;;7.56;44.75;96936.91;5079495;28;20074;-64
2023/02/08 13:21:54;;;;;;;27.20;20.67;;;;;;;7.80;45.78;96931.97;5068461;28;20028;-63
2023/02/08 13:24:30;;;;;;;21.33;18.80;;;;;;;7.52;43.60;96927.53;5074313;28;20410;-66
2023/02/08 13:26:55;;;;;;;20.08;18.20;;;;;;;7.61;43.28;96919.13;5070273;28;20070;-66
2023/02/08 13:29:31;;;;;;;21.85;19.75;;;;;;;7.82;44.24;96921.34;5067871;28;20044;-66
2023/02/08 13:32:03;;;;;;;20.48;18.55;;;;;;;7.74;41.67;96929.72;5064415;28;20028;-66
2023/02/08 13:34:41;;;;;;;20.52;18.55;;;;;;;8.14;42.79;96921.97;5070674;28;20040;-66
2023/02/08 13:37:29;;;;;;;20.45;18.27;;;;;;;7.94;42.21;96923.22;5067182;28;20032;-66
2023/02/08 13:40:26;;;;;;;18.77;16.90;;;;;;;7.73;40.63;96918.38;5071013;28;20060;-66
2023/02/08 13:43:07;;;;;;;23.08;20.77;;;;;;;7.69;42.86;96919.50;5072577;28;20418;-65
2023/02/08 13:45:44;;;;;;;22.55;20.25;;;;;;;8.31;43.70;96918.31;5072238;28;20036;-64
2023/02/08 13:48:13;;;;;;;23.15;20.67;;;;;;;8.48;43.44;96911.13;5067905;28;20039;-64
2023/02/08 13:50:41;;;;;;;23.92;21.63;;;;;;;8.53;43.58;96908.22;5070020;28;20064;-64
2023/02/08 13:53:07;;;;;;;24.25;21.58;;;;;;;8.97;42.98;96914.16;5071281;28;20678;-63
2023/02/08 13:55:52;;;;;;;22.52;20.13;;;;;;;9.08;39.75;96909.00;5077196;28;20055;-63
2023/02/08 13:58:26;;;;;;;21.83;18.73;;;;;;;9.31;41.53;96917.13;5072609;28;20462;-64